Time;durP1;ratioP1;P1;durP2;ratioP2;P2;SDS_P1;SDS_P2;PMS_P1;PMS_P2;Temp;Humidity;BMP_temperature;BMP_pressure;BME280_temperature;BME280_humidity;BME280_pressure;Samples;Min_cycle;Max_cycle;Signal;HPM_P1;HPM_P2
2022/02/28 00:00:30;;;;;;;;;;;;;;;;;;5083724;28;19912;-79
2022/02/28 00:02:56;;;;;;;;;;;;;;;;;;5087256;28;20379;-79
2022/02/28 00:05:21;;;;;;;;;;;;;;;;;;5079610;28;20292;-79
2022/02/28 00:07:49;;;;;;;;;;;;;;;;;;5102128;28;20380;-79
2022/02/28 00:10:14;;;;;;;;;;;;;;;;;;5097086;28;20015;-79
2022/02/28 00:12:39;;;;;;;;;;;;;;;;;;5103481;28;19951;-79
2022/02/28 00:15:04;;;;;;;;;;;;;;;;;;5098940;28;20007;-79
2022/02/28 00:17:29;;;;;;;;;;;;;;;;;;5104179;28;20253;-79
2022/02/28 00:19:54;;;;;;;;;;;;;;;;;;5089985;28;19912;-79
2022/02/28 00:22:19;;;;;;;;;;;;;;;;;;5081848;28;19912;-79
2022/02/28 00:24:44;;;;;;;;;;;;;;;;;;5108463;28;19912;-79
2022/02/28 00:27:09;;;;;;;;;;;;;;;;;;5075705;28;19908;-79
2022/02/28 00:29:34;;;;;;;;;;;;;;;;;;5107538;28;19918;-78
2022/02/28 00:32:00;;;;;;;;;;;;;;;;;;5073580;28;19908;-79
2022/02/28 00:34:25;;;;;;;;;;;;;;;;;;5075121;28;20407;-79
2022/02/28 00:36:50;;;;;;;;;;;;;;;;;;5073641;28;19999;-79
2022/02/28 00:39:15;;;;;;;;;;;;;;;;;;5073255;28;20356;-79
2022/02/28 00:41:40;;;;;;;;;;;;;;;;;;5073472;28;19923;-79
2022/02/28 00:44:05;;;;;;;;;;;;;;;;;;5073428;28;20280;-79
2022/02/28 00:46:30;;;;;;;;;;;;;;;;;;5075105;28;19912;-79
2022/02/28 00:48:55;;;;;;;;;;;;;;;;;;5073371;28;19913;-79
2022/02/28 00:51:21;;;;;;;;;;;;;;;;;;5073364;28;19908;-79
2022/02/28 00:53:46;;;;;;;;;;;;;;;;;;5073107;28;19919;-79
2022/02/28 00:56:11;;;;;;;;;;;;;;;;;;5073256;28;19983;-79
2022/02/28 00:58:36;;;;;;;;;;;;;;;;;;5072822;28;20433;-79
2022/02/28 01:01:01;;;;;;;;;;;;;;;;;;5073119;28;19908;-79
2022/02/28 01:03:26;;;;;;;;;;;;;;;;;;5072847;28;20404;-79
2022/02/28 01:05:51;;;;;;;;;;;;;;;;;;5068911;28;19964;-79
2022/02/28 01:08:16;;;;;;;;;;;;;;;;;;5069621;28;20286;-79
2022/02/28 01:10:42;;;;;;;;;;;;;;;;;;5069547;28;19919;-78
2022/02/28 01:13:10;;;;;;;;;;;;;;;;;;5069699;28;19959;-79
2022/02/28 01:15:35;;;;;;;;;;;;;;;;;;5053926;28;20361;-79
2022/02/28 01:18:00;;;;;;;;;;;;;;;;;;5069287;28;19917;-79
2022/02/28 01:20:26;;;;;;;;;;;;;;;;;;5069279;28;19915;-79
2022/02/28 01:22:51;;;;;;;;;;;;;;;;;;5069414;28;20345;-79
2022/02/28 01:25:16;;;;;;;;;;;;;;;;;;5069208;28;19913;-78
2022/02/28 01:27:41;;;;;;;;;;;;;;;;;;5069154;28;19909;-79
2022/02/28 01:30:06;;;;;;;;;;;;;;;;;;5069173;28;19913;-79
2022/02/28 01:32:31;;;;;;;;;;;;;;;;;;5069335;28;19909;-79
2022/02/28 01:34:56;;;;;;;;;;;;;;;;;;5069238;28;20264;-79
2022/02/28 01:37:21;;;;;;;;;;;;;;;;;;5068857;28;19909;-79
2022/02/28 01:39:46;;;;;;;;;;;;;;;;;;5068430;28;19913;-79
2022/02/28 01:42:12;;;;;;;;;;;;;;;;;;5068962;28;19919;-78
2022/02/28 01:44:37;;;;;;;;;;;;;;;;;;5068875;28;19917;-79
2022/02/28 01:47:02;;;;;;;;;;;;;;;;;;5053186;28;19924;-78
2022/02/28 01:49:27;;;;;;;;;;;;;;;;;;5068953;28;19909;-79
2022/02/28 01:51:52;;;;;;;;;;;;;;;;;;5068738;28;20332;-79
2022/02/28 01:54:17;;;;;;;;;;;;;;;;;;5068452;28;19952;-79
2022/02/28 01:56:42;;;;;;;;;;;;;;;;;;5068484;28;19908;-79
2022/02/28 01:59:07;;;;;;;;;;;;;;;;;;5068473;28;20255;-79
2022/02/28 02:01:32;;;;;;;;;;;;;;;;;;5068460;28;20257;-79
2022/02/28 02:03:58;;;;;;;;;;;;;;;;;;5068175;28;19916;-79
2022/02/28 02:06:23;;;;;;;;;;;;;;;;;;5068312;28;19923;-79
2022/02/28 02:08:48;;;;;;;;;;;;;;;;;;5068047;28;20376;-79
2022/02/28 02:11:13;;;;;;;;;;;;;;;;;;5068419;28;19921;-79
2022/02/28 02:13:38;;;;;;;;;;;;;;;;;;5068534;28;19909;-79
2022/02/28 02:16:03;;;;;;;;;;;;;;;;;;5052938;28;19909;-79
2022/02/28 02:18:28;;;;;;;;;;;;;;;;;;5067972;28;19909;-79
2022/02/28 02:20:53;;;;;;;;;;;;;;;;;;5068379;28;19909;-79
2022/02/28 02:23:18;;;;;;;;;;;;;;;;;;5068507;28;19916;-80
2022/02/28 02:25:43;;;;;;;;;;;;;;;;;;5068304;28;20039;-78
2022/02/28 02:28:09;;;;;;;;;;;;;;;;;;5067956;28;20283;-78
2022/02/28 02:30:34;;;;;;;;;;;;;;;;;;5068381;28;19923;-79
2022/02/28 02:32:59;;;;;;;;;;;;;;;;;;5068245;28;19912;-79
2022/02/28 02:35:24;;;;;;;;;;;;;;;;;;5067720;28;19913;-79
2022/02/28 02:37:49;;;;;;;;;;;;;;;;;;5068009;28;19909;-79
2022/02/28 02:40:14;;;;;;;;;;;;;;;;;;5068273;28;19924;-79
2022/02/28 02:42:39;;;;;;;;;;;;;;;;;;5068312;28;19931;-79
2022/02/28 02:45:04;;;;;;;;;;;;;;;;;;5068044;28;19913;-79
2022/02/28 02:47:29;;;;;;;;;;;;;;;;;;5052442;28;19908;-79
2022/02/28 02:49:55;;;;;;;;;;;;;;;;;;5068048;28;19908;-79
2022/02/28 02:52:20;;;;;;;;;;;;;;;;;;5069021;28;19959;-79
2022/02/28 02:54:45;;;;;;;;;;;;;;;;;;5071937;28;20363;-79
2022/02/28 02:57:10;;;;;;;;;;;;;;;;;;5071601;28;19905;-79
2022/02/28 02:59:35;;;;;;;;;;;;;;;;;;5071848;28;19909;-79
2022/02/28 03:02:00;;;;;;;;;;;;;;;;;;5072097;28;19979;-78
2022/02/28 03:04:25;;;;;;;;;;;;;;;;;;5071891;28;20012;-79
2022/02/28 03:06:51;;;;;;;;;;;;;;;;;;5071848;28;19909;-79
2022/02/28 03:09:16;;;;;;;;;;;;;;;;;;5071603;28;19935;-79
2022/02/28 03:11:41;;;;;;;;;;;;;;;;;;5071704;28;20284;-79
2022/02/28 03:14:06;;;;;;;;;;;;;;;;;;5071688;28;19920;-79
2022/02/28 03:16:31;;;;;;;;;;;;;;;;;;5071690;28;19913;-79
2022/02/28 03:18:56;;;;;;;;;;;;;;;;;;5071712;28;20286;-79
2022/02/28 03:21:21;;;;;;;;;;;;;;;;;;5071742;28;19915;-79
2022/02/28 03:23:46;;;;;;;;;;;;;;;;;;5071686;28;19956;-79
2022/02/28 03:26:12;;;;;;;;;;;;;;;;;;5071612;28;20011;-79
2022/02/28 03:28:37;;;;;;;;;;;;;;;;;;5071421;28;19932;-79
2022/02/28 03:31:02;;;;;;;;;;;;;;;;;;5071557;28;20009;-79
2022/02/28 03:33:27;;;;;;;;;;;;;;;;;;5071220;28;20312;-79
2022/02/28 03:35:52;;;;;;;;;;;;;;;;;;5071158;28;19951;-79
2022/02/28 03:38:17;;;;;;;;;;;;;;;;;;5070780;28;20003;-79
2022/02/28 03:40:44;;;;;;;;;;;;;;;;;;5070898;28;19920;-79
2022/02/28 03:43:10;;;;;;;;;;;;;;;;;;5071328;28;19908;-79
2022/02/28 03:45:35;;;;;;;;;;;;;;;;;;5056036;28;19920;-79
2022/02/28 03:48:00;;;;;;;;;;;;;;;;;;5070887;28;19913;-79
2022/02/28 03:50:25;;;;;;;;;;;;;;;;;;5071102;28;20273;-79
2022/02/28 03:52:50;;;;;;;;;;;;;;;;;;5071122;28;19909;-79
2022/02/28 03:55:15;;;;;;;;;;;;;;;;;;5071058;28;19913;-79
2022/02/28 03:57:40;;;;;;;;;;;;;;;;;;5070550;28;19913;-79
2022/02/28 04:00:05;;;;;;;;;;;;;;;;;;5070842;28;20254;-79
2022/02/28 04:02:30;;;;;;;;;;;;;;;;;;5070880;28;19915;-79
2022/02/28 04:04:55;;;;;;;;;;;;;;;;;;5070645;28;19944;-79
2022/02/28 04:07:21;;;;;;;;;;;;;;;;;;5070641;28;20427;-80
2022/02/28 04:09:46;;;;;;;;;;;;;;;;;;5070594;28;20007;-79
2022/02/28 04:12:11;;;;;;;;;;;;;;;;;;5070705;28;20008;-79
2022/02/28 04:14:36;;;;;;;;;;;;;;;;;;5070450;28;19909;-79
2022/02/28 04:17:01;;;;;;;;;;;;;;;;;;5070135;28;20295;-79
2022/02/28 04:19:26;;;;;;;;;;;;;;;;;;5070283;28;19909;-79
2022/02/28 04:21:51;;;;;;;;;;;;;;;;;;5070515;28;20337;-79
2022/02/28 04:24:16;;;;;;;;;;;;;;;;;;5070753;28;19919;-79
2022/02/28 04:26:44;;;;;;;;;;;;;;;;;;5070218;28;19955;-79
2022/02/28 04:29:09;;;;;;;;;;;;;;;;;;5070253;28;19908;-79
2022/02/28 04:31:34;;;;;;;;;;;;;;;;;;5070216;28;19909;-79
2022/02/28 04:33:59;;;;;;;;;;;;;;;;;;5070268;28;20284;-79
2022/02/28 04:36:24;;;;;;;;;;;;;;;;;;5070284;28;19915;-79
2022/02/28 04:38:49;;;;;;;;;;;;;;;;;;5070091;28;19917;-79
2022/02/28 04:41:15;;;;;;;;;;;;;;;;;;5069973;28;20280;-79
2022/02/28 04:43:40;;;;;;;;;;;;;;;;;;5070404;28;19908;-79
2022/02/28 04:46:05;;;;;;;;;;;;;;;;;;5054670;28;20400;-79
2022/02/28 04:48:30;;;;;;;;;;;;;;;;;;5069860;28;19919;-79
2022/02/28 04:50:55;;;;;;;;;;;;;;;;;;5070126;28;19920;-79
2022/02/28 04:53:20;;;;;;;;;;;;;;;;;;5070042;28;19944;-78
2022/02/28 04:55:45;;;;;;;;;;;;;;;;;;5069799;28;20257;-78
2022/02/28 04:58:10;;;;;;;;;;;;;;;;;;5069297;28;19915;-79
2022/02/28 05:00:35;;;;;;;;;;;;;;;;;;5069666;28;19909;-78
2022/02/28 05:03:00;;;;;;;;;;;;;;;;;;5054290;28;19908;-78
2022/02/28 05:05:26;;;;;;;;;;;;;;;;;;5069488;28;19913;-78
2022/02/28 05:07:51;;;;;;;;;;;;;;;;;;5069494;28;20383;-78
2022/02/28 05:10:16;;;;;;;;;;;;;;;;;;5069547;28;19912;-78
2022/02/28 05:12:41;;;;;;;;;;;;;;;;;;5069310;28;19908;-78
2022/02/28 05:15:06;;;;;;;;;;;;;;;;;;5068552;28;19921;-79
2022/02/28 05:17:31;;;;;;;;;;;;;;;;;;5053820;28;20280;-78
2022/02/28 05:19:56;;;;;;;;;;;;;;;;;;5069210;28;20004;-78
2022/02/28 05:22:21;;;;;;;;;;;;;;;;;;5069196;28;20003;-79
2022/02/28 05:24:47;;;;;;;;;;;;;;;;;;5069069;28;19962;-79
2022/02/28 05:27:12;;;;;;;;;;;;;;;;;;5068893;28;19908;-79
2022/02/28 05:29:37;;;;;;;;;;;;;;;;;;5069259;28;19984;-79
2022/02/28 05:32:02;;;;;;;;;;;;;;;;;;5053853;28;20276;-79
2022/02/28 05:34:28;;;;;;;;;;;;;;;;;;5069205;28;20332;-78
2022/02/28 05:36:53;;;;;;;;;;;;;;;;;;5068968;28;19909;-78
2022/02/28 05:39:18;;;;;;;;;;;;;;;;;;5068970;28;20434;-78
2022/02/28 05:41:43;;;;;;;;;;;;;;;;;;5068748;28;19927;-78
2022/02/28 05:44:08;;;;;;;;;;;;;;;;;;5068809;28;19920;-79
2022/02/28 05:46:33;;;;;;;;;;;;;;;;;;5068382;28;19916;-78
2022/02/28 05:48:58;;;;;;;;;;;;;;;;;;5069008;28;19908;-78
2022/02/28 05:51:25;;;;;;;;;;;;;;;;;;5069032;28;19909;-78
2022/02/28 05:53:50;;;;;;;;;;;;;;;;;;5068855;28;19909;-78
2022/02/28 05:56:15;;;;;;;;;;;;;;;;;;5068761;28;19909;-78
2022/02/28 05:58:40;;;;;;;;;;;;;;;;;;5068520;28;20007;-78
2022/02/28 06:01:05;;;;;;;;;;;;;;;;;;5053257;28;19915;-78
2022/02/28 06:03:30;;;;;;;;;;;;;;;;;;5068586;28;20003;-78
2022/02/28 06:05:56;;;;;;;;;;;;;;;;;;5068350;28;19912;-78
2022/02/28 06:08:21;;;;;;;;;;;;;;;;;;5052778;28;19963;-78
2022/02/28 06:10:46;;;;;;;;;;;;;;;;;;5068388;28;19917;-78
2022/02/28 06:13:11;;;;;;;;;;;;;;;;;;5068159;28;19952;-78
2022/02/28 06:15:41;;;;;;;;;;;;;;;;;;5068149;28;19909;-78
2022/02/28 06:18:06;;;;;;;;;;;;;;;;;;5068378;28;19909;-78
2022/02/28 06:20:31;;;;;;;;;;;;;;;;;;5067952;28;19916;-79
2022/02/28 06:22:56;;;;;;;;;;;;;;;;;;5068196;28;19939;-79
2022/02/28 06:25:21;;;;;;;;;;;;;;;;;;5068008;28;20364;-79
2022/02/28 06:27:47;;;;;;;;;;;;;;;;;;5067791;28;19944;-78
2022/02/28 06:30:12;;;;;;;;;;;;;;;;;;5068420;28;19913;-78
2022/02/28 06:32:37;;;;;;;;;;;;;;;;;;5068338;28;20372;-78
2022/02/28 06:35:02;;;;;;;;;;;;;;;;;;5068055;28;20356;-78
2022/02/28 06:37:27;;;;;;;;;;;;;;;;;;5068017;28;20431;-78
2022/02/28 06:39:53;;;;;;;;;;;;;;;;;;5068236;28;19923;-78
2022/02/28 06:42:18;;;;;;;;;;;;;;;;;;5068100;28;19940;-78
2022/02/28 06:44:44;;;;;;;;;;;;;;;;;;5067935;28;19958;-78
2022/02/28 06:47:09;;;;;;;;;;;;;;;;;;5067777;28;19908;-78
2022/02/28 06:49:34;;;;;;;;;;;;;;;;;;5074918;28;19912;-78
2022/02/28 06:51:59;;;;;;;;;;;;;;;;;;5078636;28;19956;-78
2022/02/28 06:54:24;;;;;;;;;;;;;;;;;;5074952;28;19944;-78
2022/02/28 06:56:49;;;;;;;;;;;;;;;;;;5078949;28;20007;-78
2022/02/28 06:59:14;;;;;;;;;;;;;;;;;;5071967;28;19920;-78
2022/02/28 07:01:40;;;;;;;;;;;;;;;;;;5085567;28;19919;-78
2022/02/28 07:04:07;;;;;;;;;;;;;;;;;;5090893;28;20271;-78
2022/02/28 07:06:32;;;;;;;;;;;;;;;;;;5089778;28;19965;-77
2022/02/28 07:08:57;;;;;;;;;;;;;;;;;;5090109;28;19950;-78
2022/02/28 07:11:22;;;;;;;;;;;;;;;;;;5087377;28;20077;-78
2022/02/28 07:13:47;;;;;;;;;;;;;;;;;;5091421;28;20379;-78
2022/02/28 07:16:12;;;;;;;;;;;;;;;;;;5091187;28;20013;-78
2022/02/28 07:18:38;;;;;;;;;;;;;;;;;;5092069;28;19915;-78
2022/02/28 07:21:03;;;;;;;;;;;;;;;;;;5088607;28;19908;-78
2022/02/28 07:23:28;;;;;;;;;;;;;;;;;;5083529;28;19923;-78
2022/02/28 07:25:53;;;;;;;;;;;;;;;;;;5071576;28;20359;-78
2022/02/28 07:28:18;;;;;;;;;;;;;;;;;;5081652;28;19999;-78
2022/02/28 07:30:43;;;;;;;;;;;;;;;;;;5083025;28;19912;-78
2022/02/28 07:33:08;;;;;;;;;;;;;;;;;;5123045;28;20356;-78
2022/02/28 07:35:33;;;;;;;;;;;;;;;;;;5089418;28;19981;-78
2022/02/28 07:37:58;;;;;;;;;;;;;;;;;;5071913;28;19920;-78
2022/02/28 07:40:24;;;;;;;;;;;;;;;;;;5075311;28;19917;-78
2022/02/28 07:42:49;;;;;;;;;;;;;;;;;;5077244;28;19928;-78
2022/02/28 07:45:14;;;;;;;;;;;;;;;;;;5086575;28;19920;-78
2022/02/28 07:47:39;;;;;;;;;;;;;;;;;;5056622;28;19920;-78
2022/02/28 07:50:05;;;;;;;;;;;;;;;;;;5089388;28;19948;-78
2022/02/28 07:52:30;;;;;;;;;;;;;;;;;;5091322;28;20699;-78
2022/02/28 07:54:55;;;;;;;;;;;;;;;;;;5088396;28;20379;-78
2022/02/28 07:57:20;;;;;;;;;;;;;;;;;;5099976;28;19908;-78
2022/02/28 07:59:45;;;;;;;;;;;;;;;;;;5076454;28;20364;-78
2022/02/28 08:02:10;;;;;;;;;;;;;;;;;;5126086;27;19919;-78
2022/02/28 08:04:35;;;;;;;;;;;;;;;;;;5095207;28;19912;-78
2022/02/28 08:07:00;;;;;;;;;;;;;;;;;;5093576;28;19912;-78
2022/02/28 08:09:26;;;;;;;;;;;;;;;;;;5075065;28;19920;-78
2022/02/28 08:11:52;;;;;;;;;;;;;;;;;;5074016;28;19909;-78
2022/02/28 08:14:17;;;;;;;;;;;;;;;;;;5074174;28;20280;-78
2022/02/28 08:16:42;;;;;;;;;;;;;;;;;;5073966;28;19916;-78
2022/02/28 08:19:07;;;;;;;;;;;;;;;;;;5073816;28;19963;-78
2022/02/28 08:21:32;;;;;;;;;;;;;;;;;;5073998;28;19985;-78
2022/02/28 08:23:57;;;;;;;;;;;;;;;;;;5074437;28;20378;-78
2022/02/28 08:26:22;;;;;;;;;;;;;;;;;;5073828;28;20327;-79
2022/02/28 08:28:47;;;;;;;;;;;;;;;;;;5073962;28;19913;-78
2022/02/28 08:31:12;;;;;;;;;;;;;;;;;;5075074;28;20280;-79
2022/02/28 08:33:37;;;;;;;;;;;;;;;;;;5074027;28;19909;-79
2022/02/28 08:36:03;;;;;;;;;;;;;;;;;;5074920;28;19909;-79
2022/02/28 08:38:28;;;;;;;;;;;;;;;;;;5073575;28;19916;-79
2022/02/28 08:40:53;;;;;;;;;;;;;;;;;;5073681;28;19965;-79
2022/02/28 08:43:18;;;;;;;;;;;;;;;;;;5073553;28;19908;-79
2022/02/28 08:45:43;;;;;;;;;;;;;;;;;;5073481;28;20013;-79
2022/02/28 08:48:08;;;;;;;;;;;;;;;;;;5073400;28;20375;-79
2022/02/28 08:50:33;;;;;;;;;;;;;;;;;;5073174;28;19909;-79
2022/02/28 08:52:59;;;;;;;;;;;;;;;;;;5074818;28;19916;-79
2022/02/28 08:55:24;;;;;;;;;;;;;;;;;;5073621;28;19936;-79
2022/02/28 08:57:49;;;;;;;;;;;;;;;;;;5073544;28;19915;-79
2022/02/28 09:00:14;;;;;;;;;;;;;;;;;;5073336;28;19912;-79
2022/02/28 09:02:39;;;;;;;;;;;;;;;;;;5073478;28;19908;-80
2022/02/28 09:05:04;;;;;;;;;;;;;;;;;;5073487;28;19912;-79
2022/02/28 09:07:29;;;;;;;;;;;;;;;;;;5073326;28;19912;-79
2022/02/28 09:09:54;;;;;;;;;;;;;;;;;;5073271;28;19908;-79
2022/02/28 09:12:20;;;;;;;;;;;;;;;;;;5073189;28;19908;-80
2022/02/28 09:14:45;;;;;;;;;;;;;;;;;;5073059;28;19916;-79
2022/02/28 09:17:10;;;;;;;;;;;;;;;;;;5074401;28;19951;-79
2022/02/28 09:19:35;;;;;;;;;;;;;;;;;;5074452;28;20322;-79
2022/02/28 09:22:00;;;;;;;;;;;;;;;;;;5073230;28;20347;-79
2022/02/28 09:24:28;;;;;;;;;;;;;;;;;;5074250;28;19916;-79
2022/02/28 09:26:53;;;;;;;;;;;;;;;;;;5072765;28;19909;-79
2022/02/28 09:29:18;;;;;;;;;;;;;;;;;;5073038;28;20012;-79
2022/02/28 09:31:43;;;;;;;;;;;;;;;;;;5072810;28;20054;-79
2022/02/28 09:34:08;;;;;;;;;;;;;;;;;;5072832;28;20359;-79
2022/02/28 09:36:33;;;;;;;;;;;;;;;;;;5072425;28;19932;-79
2022/02/28 09:38:58;;;;;;;;;;;;;;;;;;5072671;28;20272;-79
2022/02/28 09:41:24;;;;;;;;;;;;;;;;;;5072780;28;20383;-80
2022/02/28 09:43:49;;;;;;;;;;;;;;;;;;5072432;28;20364;-80
2022/02/28 09:46:14;;;;;;;;;;;;;;;;;;5073517;28;19913;-79
2022/02/28 09:48:41;;;;;;;;;;;;;;;;;;5071802;28;20644;-79
2022/02/28 09:51:06;;;;;;;;;;;;;;;;;;5072339;28;19955;-80
2022/02/28 09:53:31;;;;;;;;;;;;;;;;;;5072580;28;19962;-80
2022/02/28 09:55:56;;;;;;;;;;;;;;;;;;5072582;28;19904;-79
2022/02/28 09:58:21;;;;;;;;;;;;;;;;;;5072341;28;20375;-80
2022/02/28 10:00:51;;;;;;;;;;;;;;;;;;5071970;28;20340;-80
2022/02/28 10:03:16;;;;;;;;;;;;;;;;;;5073773;28;19915;-80
2022/02/28 10:05:41;;;;;;;;;;;;;;;;;;5072219;28;20342;-79
2022/02/28 10:08:06;;;;;;;;;;;;;;;;;;5073351;28;20374;-79
2022/02/28 10:10:31;;;;;;;;;;;;;;;;;;5073360;28;19954;-79
2022/02/28 10:12:56;;;;;;;;;;;;;;;;;;5072113;28;19965;-80
2022/02/28 10:15:22;;;;;;;;;;;;;;;;;;5071860;28;19935;-79
2022/02/28 10:17:47;;;;;;;;;;;;;;;;;;5071935;28;20462;-79
2022/02/28 10:20:13;;;;;;;;;;;;;;;;;;5073434;28;20447;-79
2022/02/28 10:22:38;;;;;;;;;;;;;;;;;;5071821;28;19908;-79
2022/02/28 10:25:03;;;;;;;;;;;;;;;;;;5073088;28;19912;-80
2022/02/28 10:27:28;;;;;;;;;;;;;;;;;;5072096;28;20267;-80
2022/02/28 10:29:55;;;;;;;;;;;;;;;;;;5072168;28;20275;-79
2022/02/28 10:32:25;;;;;;;;;;;;;;;;;;5073240;28;19908;-79
2022/02/28 10:37:34;;;;;;;;;;;;;;;;;;5072997;28;20375;-79
2022/02/28 10:39:59;;;;;;;;;;;;;;;;;;5071907;28;19913;-80
2022/02/28 10:42:24;;;;;;;;;;;;;;;;;;5071728;28;19916;-79
2022/02/28 10:44:51;;;;;;;;;;;;;;;;;;5071990;28;20383;-80
2022/02/28 10:47:16;;;;;;;;;;;;;;;;;;5071651;28;19917;-79
2022/02/28 10:49:41;;;;;;;;;;;;;;;;;;5071875;28;19909;-80
2022/02/28 10:52:10;;;;;;;;;;;;;;;;;;5071842;28;20287;-80
2022/02/28 10:54:35;;;;;;;;;;;;;;;;;;5071995;28;19930;-80
2022/02/28 10:57:00;;;;;;;;;;;;;;;;;;5071443;28;19909;-80
2022/02/28 10:59:25;;;;;;;;;;;;;;;;;;5071576;28;19915;-80
2022/02/28 11:01:50;;;;;;;;;;;;;;;;;;5071472;28;19999;-80
2022/02/28 11:04:15;;;;;;;;;;;;;;;;;;5071672;28;19916;-80
2022/02/28 11:06:42;;;;;;;;;;;;;;;;;;5071372;28;20325;-80
2022/02/28 11:09:07;;;;;;;;;;;;;;;;;;5072902;28;19924;-80
2022/02/28 11:11:32;;;;;;;;;;;;;;;;;;5071608;28;20011;-80
2022/02/28 11:13:57;;;;;;;;;;;;;;;;;;5074978;28;20341;-80
2022/02/28 11:16:22;;;;;;;;;;;;;;;;;;5075384;28;19916;-80
2022/02/28 11:18:50;;;;;;;;;;;;;;;;;;5075449;28;19932;-80
2022/02/28 11:21:16;;;;;;;;;;;;;;;;;;5075342;28;19998;-80
2022/02/28 11:23:41;;;;;;;;;;;;;;;;;;5075442;28;19916;-79
2022/02/28 11:26:06;;;;;;;;;;;;;;;;;;5075308;28;19913;-80
2022/02/28 11:28:31;;;;;;;;;;;;;;;;;;5075118;28;19909;-80
2022/02/28 11:30:56;;;;;;;;;;;;;;;;;;5076568;28;19915;-80
2022/02/28 11:33:21;;;;;;;;;;;;;;;;;;5075517;28;20030;-80
2022/02/28 11:35:48;;;;;;;;;;;;;;;;;;5074800;28;20019;-80
2022/02/28 11:38:13;;;;;;;;;;;;;;;;;;5074901;28;19920;-80
2022/02/28 11:40:38;;;;;;;;;;;;;;;;;;5076417;28;19966;-80
2022/02/28 11:43:04;;;;;;;;;;;;;;;;;;5075026;28;20375;-80
2022/02/28 11:45:29;;;;;;;;;;;;;;;;;;5068860;28;19970;-80
2022/02/28 11:47:54;;;;;;;;;;;;;;;;;;5109298;28;19915;-80
2022/02/28 11:50:20;;;;;;;;;;;;;;;;;;5109340;28;19908;-80
2022/02/28 11:52:45;;;;;;;;;;;;;;;;;;5109243;28;19915;-80
2022/02/28 11:55:10;;;;;;;;;;;;;;;;;;5092198;28;19912;-80
2022/02/28 11:57:35;;;;;;;;;;;;;;;;;;5088965;28;19913;-80
2022/02/28 12:00:00;;;;;;;;;;;;;;;;;;5088704;28;19909;-80
2022/02/28 12:02:27;;;;;;;;;;;;;;;;;;5088764;28;19916;-80
2022/02/28 12:04:52;;;;;;;;;;;;;;;;;;5090386;28;19928;-80
2022/02/28 12:07:17;;;;;;;;;;;;;;;;;;5056271;28;20323;-80
2022/02/28 12:09:42;;;;;;;;;;;;;;;;;;5096845;28;19919;-80
2022/02/28 12:12:08;;;;;;;;;;;;;;;;;;5095316;28;19908;-80
2022/02/28 12:14:33;;;;;;;;;;;;;;;;;;5092325;28;19919;-79
2022/02/28 12:19:41;;;;;;;;;;;;;;;;;;5087681;28;20462;-80
2022/02/28 12:22:07;;;;;;;;;;;;;;;;;;5094242;28;20006;-80
2022/02/28 12:24:32;;;;;;;;;;;;;;;;;;5082799;28;19999;-79
2022/02/28 12:26:57;;;;;;;;;;;;;;;;;;5108079;28;19909;-79
2022/02/28 12:29:22;;;;;;;;;;;;;;;;;;5101814;28;20425;-80
2022/02/28 12:31:47;;;;;;;;;;;;;;;;;;5066557;28;19940;-81
2022/02/28 12:34:12;;;;;;;;;;;;;;;;;;5097617;28;19920;-80
2022/02/28 12:36:39;;;;;;;;;;;;;;;;;;5107388;28;20193;-80
2022/02/28 12:39:04;;;;;;;;;;;;;;;;;;5107811;28;19912;-80
2022/02/28 12:41:29;;;;;;;;;;;;;;;;;;5107867;28;19965;-80
2022/02/28 12:43:54;;;;;;;;;;;;;;;;;;5107929;28;19966;-80
2022/02/28 12:46:19;;;;;;;;;;;;;;;;;;5107798;28;19912;-79
2022/02/28 12:48:44;;;;;;;;;;;;;;;;;;5107818;28;19908;-80
2022/02/28 12:51:09;;;;;;;;;;;;;;;;;;5107860;28;19915;-80
2022/02/28 12:53:35;;;;;;;;;;;;;;;;;;5075142;28;20356;-80
2022/02/28 12:56:00;;;;;;;;;;;;;;;;;;5107731;28;19915;-80
2022/02/28 12:58:25;;;;;;;;;;;;;;;;;;5107255;28;20001;-80
2022/02/28 13:00:50;;;;;;;;;;;;;;;;;;5075244;28;20284;-80
2022/02/28 13:03:15;;;;;;;;;;;;;;;;;;5107529;28;19905;-80
2022/02/28 13:05:40;;;;;;;;;;;;;;;;;;5107321;28;20326;-80
2022/02/28 13:08:05;;;;;;;;;;;;;;;;;;5107212;28;20008;-80
2022/02/28 13:10:30;;;;;;;;;;;;;;;;;;5107316;28;19914;-80
2022/02/28 13:12:56;;;;;;;;;;;;;;;;;;5079453;28;19975;-80
2022/02/28 13:15:21;;;;;;;;;;;;;;;;;;5105792;28;20383;-80
2022/02/28 13:17:46;;;;;;;;;;;;;;;;;;5107716;28;19930;-80
2022/02/28 13:20:11;;;;;;;;;;;;;;;;;;5107555;28;20047;-80
2022/02/28 13:22:36;;;;;;;;;;;;;;;;;;5074825;28;19909;-80
2022/02/28 13:25:01;;;;;;;;;;;;;;;;;;5093916;28;19917;-80
2022/02/28 13:27:26;;;;;;;;;;;;;;;;;;5099014;28;19966;-80
2022/02/28 13:29:52;;;;;;;;;;;;;;;;;;5107426;28;19954;-80
2022/02/28 13:32:18;;;;;;;;;;;;;;;;;;5074708;28;20253;-80
2022/02/28 13:34:43;;;;;;;;;;;;;;;;;;5107754;28;19939;-80
2022/02/28 13:37:08;;;;;;;;;;;;;;;;;;5106577;28;19908;-80
2022/02/28 13:39:33;;;;;;;;;;;;;;;;;;5119044;27;19912;-80
2022/02/28 13:41:58;;;;;;;;;;;;;;;;;;5093186;28;19912;-80
2022/02/28 13:44:25;;;;;;;;;;;;;;;;;;5086717;28;19912;-79
2022/02/28 13:46:51;;;;;;;;;;;;;;;;;;5078196;28;20428;-80
2022/02/28 13:49:16;;;;;;;;;;;;;;;;;;5086855;28;19917;-80
2022/02/28 13:51:42;;;;;;;;;;;;;;;;;;5085593;28;19909;-80
2022/02/28 13:54:07;;;;;;;;;;;;;;;;;;5072920;28;20066;-80
2022/02/28 13:56:32;;;;;;;;;;;;;;;;;;5072970;28;20257;-80
2022/02/28 13:58:58;;;;;;;;;;;;;;;;;;5072912;28;19916;-80
2022/02/28 14:01:23;;;;;;;;;;;;;;;;;;5074156;28;19916;-80
2022/02/28 14:03:48;;;;;;;;;;;;;;;;;;5072843;28;19909;-80
2022/02/28 14:06:13;;;;;;;;;;;;;;;;;;5072672;28;19912;-80
2022/02/28 14:08:38;;;;;;;;;;;;;;;;;;5073983;28;19908;-80
2022/02/28 14:11:03;;;;;;;;;;;;;;;;;;5072742;28;20356;-80
2022/02/28 14:13:28;;;;;;;;;;;;;;;;;;5090401;28;19912;-80
2022/02/28 14:15:54;;;;;;;;;;;;;;;;;;5092813;28;20271;-80
2022/02/28 14:18:20;;;;;;;;;;;;;;;;;;5082011;28;19980;-80
2022/02/28 14:20:45;;;;;;;;;;;;;;;;;;5053897;28;19912;-80
2022/02/28 14:23:12;;;;;;;;;;;;;;;;;;5054330;28;19916;-80
2022/02/28 14:25:37;;;;;;;;;;;;;;;;;;5069143;28;20280;-80
2022/02/28 14:28:03;;;;;;;;;;;;;;;;;;5084742;28;20348;-80
2022/02/28 14:30:28;;;;;;;;;;;;;;;;;;5079871;28;19913;-80
2022/02/28 14:32:54;;;;;;;;;;;;;;;;;;5068903;28;19962;-80
2022/02/28 14:35:19;;;;;;;;;;;;;;;;;;5083325;28;19938;-80
2022/02/28 14:37:45;;;;;;;;;;;;;;;;;;5092704;28;19920;-80
2022/02/28 14:40:10;;;;;;;;;;;;;;;;;;5093838;28;20260;-80
2022/02/28 14:42:37;;;;;;;;;;;;;;;;;;5092461;28;20651;-80
2022/02/28 14:45:02;;;;;;;;;;;;;;;;;;5084789;28;19962;-80
2022/02/28 14:47:28;;;;;;;;;;;;;;;;;;5087624;28;19920;-80
2022/02/28 14:49:53;;;;;;;;;;;;;;;;;;5099403;28;20279;-80
2022/02/28 14:52:18;;;;;;;;;;;;;;;;;;5099476;28;19965;-80
2022/02/28 14:54:44;;;;;;;;;;;;;;;;;;5098898;28;20382;-80
2022/02/28 14:57:09;;;;;;;;;;;;;;;;;;5098506;28;19908;-80
2022/02/28 14:59:34;;;;;;;;;;;;;;;;;;5098655;28;19912;-80
2022/02/28 15:01:59;;;;;;;;;;;;;;;;;;5098754;28;19908;-80
2022/02/28 15:04:24;;;;;;;;;;;;;;;;;;5100120;28;19955;-80
2022/02/28 15:06:49;;;;;;;;;;;;;;;;;;5098477;28;20011;-80
2022/02/28 15:09:14;;;;;;;;;;;;;;;;;;5098826;28;19983;-80
2022/02/28 15:11:39;;;;;;;;;;;;;;;;;;5095171;28;19915;-86
2022/02/28 15:14:07;;;;;;;;;;;;;;;;;;5112766;28;19916;-80
2022/02/28 15:16:33;;;;;;;;;;;;;;;;;;5112745;28;19908;-80
2022/02/28 15:18:59;;;;;;;;;;;;;;;;;;5112741;28;19975;-80
2022/02/28 15:21:24;;;;;;;;;;;;;;;;;;5112693;28;19913;-80
2022/02/28 15:23:49;;;;;;;;;;;;;;;;;;5112331;28;20279;-80
2022/02/28 15:26:14;;;;;;;;;;;;;;;;;;5112220;28;19920;-80
2022/02/28 15:28:39;;;;;;;;;;;;;;;;;;5079561;28;19915;-80
2022/02/28 15:31:04;;;;;;;;;;;;;;;;;;5111996;28;19912;-80
2022/02/28 15:33:29;;;;;;;;;;;;;;;;;;5079470;28;19909;-80
2022/02/28 15:35:54;;;;;;;;;;;;;;;;;;5111831;28;19909;-80
2022/02/28 15:38:20;;;;;;;;;;;;;;;;;;5112206;28;19915;-80
2022/02/28 15:40:45;;;;;;;;;;;;;;;;;;5093678;28;20394;-80
2022/02/28 15:43:10;;;;;;;;;;;;;;;;;;5059535;28;19963;-80
2022/02/28 15:45:36;;;;;;;;;;;;;;;;;;5091666;28;19939;-80
2022/02/28 15:48:01;;;;;;;;;;;;;;;;;;5091574;28;19935;-80
2022/02/28 15:50:26;;;;;;;;;;;;;;;;;;5092221;28;19908;-80
2022/02/28 15:52:53;;;;;;;;;;;;;;;;;;5118254;27;19919;-80
2022/02/28 15:55:19;;;;;;;;;;;;;;;;;;5080283;28;20003;-80
2022/02/28 15:57:45;;;;;;;;;;;;;;;;;;5079488;28;19909;-80
2022/02/28 16:00:10;;;;;;;;;;;;;;;;;;5090415;28;19920;-80
2022/02/28 16:02:35;;;;;;;;;;;;;;;;;;5088922;28;20054;-80
2022/02/28 16:05:00;;;;;;;;;;;;;;;;;;5098703;27;20062;-80
2022/02/28 16:07:25;;;;;;;;;;;;;;;;;;5088829;28;20019;-80
2022/02/28 16:09:50;;;;;;;;;;;;;;;;;;5101694;28;19912;-80
2022/02/28 16:12:16;;;;;;;;;;;;;;;;;;5089244;28;19913;-80
2022/02/28 16:14:41;;;;;;;;;;;;;;;;;;5095266;28;19908;-79
2022/02/28 16:17:09;;;;;;;;;;;;;;;;;;5093801;28;19908;-80
2022/02/28 16:19:34;;;;;;;;;;;;;;;;;;5077687;28;19908;-80
2022/02/28 16:21:59;;;;;;;;;;;;;;;;;;5074207;28;20446;-80
2022/02/28 16:24:24;;;;;;;;;;;;;;;;;;5074772;28;20379;-80
2022/02/28 16:26:49;;;;;;;;;;;;;;;;;;5074717;28;19912;-79
2022/02/28 16:29:14;;;;;;;;;;;;;;;;;;5074676;28;20360;-80
2022/02/28 16:31:39;;;;;;;;;;;;;;;;;;5072160;28;19913;-80
2022/02/28 16:34:05;;;;;;;;;;;;;;;;;;5095398;28;19913;-80
2022/02/28 16:36:30;;;;;;;;;;;;;;;;;;5077730;28;19917;-80